createdAt,value
2018-08-11T00:00:59.505Z,69.92
2018-08-11T00:01:59.519Z,70.21
2018-08-11T00:02:59.502Z,70.78
2018-08-11T00:03:59.504Z,70.78
2018-08-11T00:04:59.520Z,70.78
2018-08-11T00:05:59.513Z,71.17
2018-08-11T00:06:59.514Z,70.78
2018-08-11T00:07:59.526Z,70.68
2018-08-11T00:08:59.528Z,71.17
2018-08-11T00:09:59.531Z,71.26
2018-08-11T00:10:59.527Z,71.26
2018-08-11T00:11:59.533Z,71.36
2018-08-11T00:12:59.541Z,71.46
2018-08-11T00:13:59.543Z,70.98
2018-08-11T00:14:59.544Z,70.78
2018-08-11T00:15:59.539Z,70.88
2018-08-11T00:16:59.553Z,70.78
2018-08-11T00:17:59.544Z,72.23
2018-08-11T00:18:59.553Z,72.03
2018-08-11T00:19:59.569Z,71.46
2018-08-11T00:20:59.555Z,70.78
2018-08-11T00:21:59.559Z,71.36
2018-08-11T00:23:00.198Z,71.46
2018-08-11T00:23:59.560Z,71.94
2018-08-11T00:24:59.562Z,71.65
2018-08-11T00:25:59.575Z,72.32
2018-08-11T00:26:59.583Z,72.03
2018-08-11T00:27:59.620Z,72.42
2018-08-11T00:28:59.580Z,72.03
2018-08-11T00:29:59.589Z,72.23
2018-08-11T00:30:59.577Z,72.03
2018-08-11T00:31:59.580Z,72.42
2018-08-11T00:33:00.203Z,72.61
2018-08-11T00:33:59.590Z,72.42
2018-08-11T00:34:59.593Z,72.90
2018-08-11T00:35:59.602Z,73.28
2018-08-11T00:36:59.600Z,73.09
2018-08-11T00:37:59.603Z,73.28
2018-08-11T00:38:59.610Z,73.96
2018-08-11T00:39:59.619Z,74.05
2018-08-11T00:40:59.635Z,73.86
2018-08-11T00:41:59.620Z,73.57
2018-08-11T00:42:59.612Z,74.73
2018-08-11T00:43:59.631Z,74.44
2018-08-11T00:44:59.621Z,75.11
2018-08-11T00:46:00.215Z,74.96
2018-08-11T00:46:59.614Z,75.44
2018-08-11T00:47:59.627Z,74.67
2018-08-11T00:48:59.695Z,75.34
2018-08-11T00:49:59.638Z,75.02
2018-08-11T00:50:59.648Z,74.82
2018-08-11T00:51:59.649Z,76.07
2018-08-11T00:52:59.648Z,77.33
2018-08-11T00:53:59.654Z,78.77
2018-08-11T00:54:59.651Z,82.52
2018-08-11T00:55:59.655Z,85.02
2018-08-11T00:56:59.653Z,86.90
2018-08-11T00:57:59.659Z,88.15
2018-08-11T00:58:59.730Z,89.40
2018-08-11T00:59:59.669Z,90.36
2018-08-11T01:00:59.673Z,90.84
2018-08-11T01:01:59.670Z,91.52
2018-08-11T01:02:59.673Z,92.38
2018-08-11T01:03:59.673Z,92.19
2018-08-11T01:04:59.681Z,92.86
2018-08-11T01:05:59.684Z,92.86
2018-08-11T01:06:59.679Z,92.72
2018-08-11T01:07:59.691Z,93.19
2018-08-11T01:08:59.697Z,93.19
2018-08-11T01:09:59.686Z,93.39
2018-08-11T01:10:59.753Z,93.39
2018-08-11T01:11:59.690Z,93.96
2018-08-11T01:12:59.701Z,93.87
2018-08-11T01:14:01.296Z,93.34
2018-08-11T01:14:59.716Z,93.34
2018-08-11T01:15:59.721Z,93.25
2018-08-11T01:16:59.710Z,93.34
2018-08-11T01:17:59.717Z,93.54
2018-08-11T01:18:59.719Z,93.54
2018-08-11T01:19:59.713Z,93.44
2018-08-11T01:20:59.723Z,94.01
2018-08-11T01:21:59.724Z,93.44
2018-08-11T01:22:59.724Z,94.21
2018-08-11T01:23:59.719Z,92.96
2018-08-11T01:24:59.732Z,93.34
2018-08-11T01:25:59.726Z,90.46
2018-08-11T01:26:59.728Z,92.91
2018-08-11T01:27:59.743Z,91.86
2018-08-11T01:28:59.742Z,92.24
2018-08-11T01:29:59.776Z,90.61
2018-08-11T01:30:59.749Z,90.28
2018-08-11T01:31:59.767Z,89.41
2018-08-11T01:32:59.753Z,90.75
2018-08-11T01:33:59.749Z,87.55
2018-08-11T01:34:59.761Z,88.02
2018-08-11T01:35:59.764Z,88.22
2018-08-11T01:36:59.763Z,88.02
2018-08-11T01:37:59.776Z,87.45
2018-08-11T01:38:59.782Z,87.79
2018-08-11T01:40:00.744Z,85.68
2018-08-11T01:40:59.776Z,85.53
2018-08-11T01:41:59.771Z,85.72
2018-08-11T01:42:59.780Z,84.25
2018-08-11T01:43:59.808Z,81.41
2018-08-11T01:44:59.789Z,79.59
2018-08-11T01:45:59.785Z,82.42
2018-08-11T01:46:59.781Z,82.52
2018-08-11T01:47:59.792Z,80.70
2018-08-11T01:49:01.331Z,78.27
2018-08-11T01:49:59.793Z,77.31
2018-08-11T01:50:59.801Z,74.91
2018-08-11T01:51:59.800Z,76.15
2018-08-11T01:52:59.831Z,74.72
2018-08-11T01:53:59.816Z,74.91
2018-08-11T01:54:59.823Z,73.38
2018-08-11T01:55:59.816Z,71.75
2018-08-11T01:56:59.807Z,68.87
2018-08-11T01:57:59.878Z,70.60
2018-08-11T01:58:59.809Z,69.64
2018-08-11T01:59:59.829Z,70.60
2018-08-11T02:00:59.821Z,67.34
2018-08-11T02:01:59.827Z,70.47
2018-08-11T02:02:59.820Z,66.16
2018-08-11T02:03:59.829Z,66.00
2018-08-11T02:04:59.843Z,66.06
2018-08-11T02:05:59.847Z,64.92
2018-08-11T02:06:59.831Z,64.25
2018-08-11T02:07:59.853Z,65.42
2018-08-11T02:08:59.848Z,64.53
2018-08-11T02:09:59.850Z,64.47
2018-08-11T02:10:59.911Z,64.43
2018-08-11T02:11:59.851Z,67.31
2018-08-11T02:12:59.853Z,64.43
2018-08-11T02:14:02.818Z,63.19
2018-08-11T02:14:59.864Z,61.85
2018-08-11T02:15:59.860Z,59.55
2018-08-11T02:16:59.867Z,58.22
2018-08-11T02:17:59.892Z,60.32
2018-08-11T02:18:59.885Z,61.47
2018-08-11T02:19:59.876Z,61.18
2018-08-11T02:20:59.874Z,59.94
2018-08-11T02:21:59.874Z,60.99
2018-08-11T02:22:59.887Z,61.76
2018-08-11T02:23:59.924Z,61.57
2018-08-11T02:24:59.884Z,60.70
2018-08-11T02:25:59.877Z,61.63
2018-08-11T02:26:59.885Z,58.95
2018-08-11T02:27:59.900Z,59.43
2018-08-11T02:28:59.922Z,56.65
2018-08-11T02:29:59.897Z,55.88
2018-08-11T02:30:59.939Z,55.34
2018-08-11T02:31:59.908Z,56.87
2018-08-11T02:32:59.912Z,57.99
2018-08-11T02:33:59.907Z,57.35
2018-08-11T02:34:59.918Z,56.39
2018-08-11T02:35:59.916Z,56.39
2018-08-11T02:36:59.973Z,56.59
2018-08-11T02:37:59.923Z,55.31
2018-08-11T02:38:59.920Z,54.64
2018-08-11T02:39:59.928Z,53.69
2018-08-11T02:40:59.925Z,54.16
2018-08-11T02:41:59.929Z,54.26
2018-08-11T02:42:59.929Z,54.07
2018-08-11T02:43:59.926Z,53.78
2018-08-11T02:44:59.939Z,53.88
2018-08-11T02:45:59.939Z,53.78
2018-08-11T02:46:59.931Z,53.56
2018-08-11T02:47:59.939Z,53.08
2018-08-11T02:48:59.932Z,53.85
2018-08-11T02:50:01.831Z,53.85
2018-08-11T02:51:00.015Z,53.75
2018-08-11T02:51:59.945Z,53.66
2018-08-11T02:52:59.964Z,54.33
2018-08-11T02:53:59.944Z,54.14
2018-08-11T02:54:59.953Z,53.18
2018-08-11T02:55:59.971Z,53.75
2018-08-11T02:56:59.967Z,54.23
2018-08-11T02:57:59.961Z,53.94
2018-08-11T02:58:59.967Z,53.85
2018-08-11T02:59:59.972Z,53.28
2018-08-11T03:00:59.971Z,53.66
2018-08-11T03:01:59.987Z,53.97
2018-08-11T03:02:59.979Z,53.88
2018-08-11T03:03:59.980Z,54.61
2018-08-11T03:04:59.975Z,53.85
2018-08-11T03:05:59.979Z,54.16
2018-08-11T03:06:59.996Z,53.75
2018-08-11T03:07:59.983Z,53.97
2018-08-11T03:08:59.999Z,54.33
2018-08-11T03:09:59.984Z,53.94
2018-08-11T03:10:59.994Z,53.94
2018-08-11T03:12:00.005Z,53.88
2018-08-11T03:13:00.028Z,53.59
2018-08-11T03:14:00.111Z,53.75
2018-08-11T03:15:00.012Z,53.94
2018-08-11T03:16:00.034Z,52.61
2018-08-11T03:17:00.015Z,52.51
2018-08-11T03:18:00.018Z,52.25
2018-08-11T03:19:00.007Z,52.25
2018-08-11T03:20:00.020Z,52.25
2018-08-11T03:21:00.020Z,52.44
2018-08-11T03:22:00.029Z,53.20
2018-08-11T03:23:00.029Z,54.07
2018-08-11T03:24:00.034Z,53.78
2018-08-11T03:25:00.032Z,53.40
2018-08-11T03:26:00.031Z,53.78
2018-08-11T03:47:03.602Z,51.65
2018-08-11T03:48:01.418Z,51.10
2018-08-11T03:49:01.572Z,50.79
2018-08-11T03:50:21.422Z,50.89
2018-08-11T03:51:01.052Z,51.07
2018-08-11T03:52:00.452Z,51.17
2018-08-11T03:53:00.486Z,52.51
2018-08-11T03:54:00.459Z,51.65
2018-08-11T03:55:00.524Z,50.98
2018-08-11T03:56:00.432Z,51.27
2018-08-11T03:57:00.442Z,52.22
2018-08-11T03:58:00.432Z,52.03
2018-08-11T03:59:00.468Z,52.51
2018-08-11T04:00:00.408Z,52.03
2018-08-11T04:01:00.481Z,51.07
2018-08-11T04:02:00.443Z,51.17
2018-08-11T04:03:01.063Z,51.56
2018-08-11T04:04:00.471Z,51.17
2018-08-11T04:05:00.442Z,50.70
2018-08-11T04:06:00.453Z,50.98
2018-08-11T04:07:00.436Z,50.60
2018-08-11T04:08:00.437Z,50.98
2018-08-11T04:09:00.472Z,51.46
2018-08-11T04:10:00.426Z,50.79
2018-08-11T04:11:00.452Z,51.36
2018-08-11T04:12:00.456Z,51.65
2018-08-11T04:13:00.440Z,52.03
2018-08-11T04:14:00.452Z,52.22
2018-08-11T04:15:00.469Z,52.32
2018-08-11T04:16:00.463Z,51.07
2018-08-11T04:17:00.532Z,52.22
2018-08-11T04:18:00.479Z,52.61
2018-08-11T04:19:00.512Z,51.84
2018-08-11T04:20:00.483Z,52.03
2018-08-11T04:21:00.494Z,51.84
2018-08-11T04:22:00.507Z,52.22
2018-08-11T04:23:00.532Z,52.99
2018-08-11T04:24:00.506Z,52.61
2018-08-11T04:25:00.807Z,52.32
2018-08-11T04:26:01.069Z,52.32
2018-08-11T04:27:00.503Z,51.65
2018-08-11T04:28:00.536Z,50.50
2018-08-11T04:29:00.520Z,50.41
2018-08-11T04:30:00.519Z,50.31
2018-08-11T04:31:00.523Z,50.89
2018-08-11T04:32:00.519Z,50.79
2018-08-11T04:33:00.507Z,51.27
2018-08-11T04:34:00.532Z,50.98
2018-08-11T04:35:00.507Z,51.75
2018-08-11T04:36:00.502Z,52.32
2018-08-11T04:37:00.494Z,50.98
2018-08-11T04:38:00.487Z,51.84
2018-08-11T04:39:00.538Z,52.51
2018-08-11T04:40:00.539Z,52.42
2018-08-11T04:41:00.501Z,52.51
2018-08-11T04:42:00.610Z,51.75
2018-08-11T04:43:00.577Z,51.56
2018-08-11T04:44:00.659Z,51.27
2018-08-11T04:45:00.528Z,50.98
2018-08-11T04:46:00.543Z,52.51
2018-08-11T04:47:00.584Z,51.93
2018-08-11T04:48:00.605Z,52.51
2018-08-11T04:49:00.568Z,53.18
2018-08-11T04:50:00.595Z,53.18
2018-08-11T04:51:00.588Z,53.75
2018-08-11T04:52:00.606Z,53.37
2018-08-11T04:53:00.552Z,54.04
2018-08-11T04:54:00.539Z,54.80
2018-08-11T04:55:00.583Z,54.61
2018-08-11T04:56:00.543Z,54.90
2018-08-11T04:57:00.546Z,53.28
2018-08-11T04:58:00.591Z,52.80
2018-08-11T04:59:00.597Z,52.22
2018-08-11T05:00:00.575Z,50.91
2018-08-11T05:01:00.543Z,52.61
2018-08-11T05:02:00.621Z,52.99
2018-08-11T05:03:00.591Z,52.99
2018-08-11T05:04:00.581Z,51.58
2018-08-11T05:05:00.658Z,52.63
2018-08-11T05:06:00.601Z,53.66
2018-08-11T05:07:00.658Z,52.99
2018-08-11T05:08:00.609Z,52.32
2018-08-11T05:09:00.567Z,51.07
2018-08-11T05:10:00.600Z,52.03
2018-08-11T05:11:00.592Z,52.51
2018-08-11T05:12:00.617Z,52.61
2018-08-11T05:13:00.609Z,53.94
2018-08-11T05:14:00.584Z,54.04
2018-08-11T05:15:00.628Z,52.13
2018-08-11T05:16:00.605Z,52.51
2018-08-11T05:17:00.663Z,52.70
2018-08-11T05:18:00.647Z,52.70
2018-08-11T05:19:00.632Z,53.94
2018-08-11T05:20:01.152Z,54.04
2018-08-11T05:21:00.671Z,53.94
2018-08-11T05:22:00.623Z,54.23
2018-08-11T05:23:00.651Z,53.94
2018-08-11T05:24:00.673Z,53.85
2018-08-11T05:25:00.634Z,53.18
2018-08-11T05:26:00.669Z,53.40
2018-08-11T05:27:00.658Z,54.07
2018-08-11T05:28:00.652Z,53.97
2018-08-11T05:29:00.613Z,53.88
2018-08-11T05:30:00.628Z,53.69
2018-08-11T05:31:00.645Z,53.97
2018-08-11T05:32:00.674Z,53.88
2018-08-11T05:33:00.646Z,54.16
2018-08-11T05:34:00.699Z,53.11
2018-08-11T05:35:00.677Z,52.83
2018-08-11T05:36:00.658Z,52.09
2018-08-11T05:37:00.687Z,52.95
2018-08-11T05:38:00.645Z,55.15
2018-08-11T05:39:00.695Z,56.87
2018-08-11T05:40:00.701Z,56.75
2018-08-11T05:41:00.699Z,56.56
2018-08-11T05:42:00.657Z,56.94
2018-08-11T05:43:00.717Z,57.16
2018-08-11T05:44:00.665Z,58.31
2018-08-11T05:45:00.652Z,59.45
2018-08-11T05:46:00.687Z,67.32
2018-08-11T05:47:00.692Z,71.69
2018-08-11T05:48:00.673Z,71.21
2018-08-11T05:49:00.668Z,72.74
2018-08-11T05:50:00.718Z,71.94
2018-08-11T05:51:00.770Z,69.74
2018-08-11T05:52:00.716Z,66.86
2018-08-11T05:53:00.710Z,66.38
2018-08-11T05:54:00.735Z,64.56
2018-08-11T05:55:00.714Z,63.89
2018-08-11T05:56:00.914Z,65.23
2018-08-11T05:57:00.712Z,66.00
2018-08-11T05:58:00.729Z,64.95
2018-08-11T05:59:00.753Z,63.22
2018-08-11T06:00:00.688Z,63.42
2018-08-11T06:01:00.767Z,65.23
2018-08-11T06:02:00.741Z,65.14
2018-08-11T06:03:00.739Z,66.45
2018-08-11T06:04:00.750Z,64.82
2018-08-11T06:05:00.755Z,65.52
2018-08-11T06:06:00.740Z,66.77
2018-08-11T06:07:00.736Z,67.91
2018-08-11T06:08:00.796Z,68.87
2018-08-11T06:09:00.744Z,68.78
2018-08-11T06:10:00.746Z,70.41
2018-08-11T06:11:00.749Z,69.83
2018-08-11T06:12:00.791Z,68.40
2018-08-11T06:13:00.817Z,69.74
2018-08-11T06:14:01.614Z,70.60
2018-08-11T06:15:00.780Z,70.89
2018-08-11T06:16:00.834Z,71.75
2018-08-11T06:17:00.783Z,72.55
2018-08-11T06:18:00.765Z,71.31
2018-08-11T06:19:00.739Z,75.31
2018-08-11T06:20:00.798Z,92.29
2018-08-11T06:21:00.769Z,97.33
2018-08-11T06:22:00.797Z,97.96
2018-08-11T06:23:00.841Z,98.05
2018-08-11T06:24:00.852Z,96.56
2018-08-11T06:25:00.884Z,99.98
2018-08-11T06:26:01.110Z,99.99
2018-08-11T06:27:01.111Z,97.76
2018-08-11T06:28:00.827Z,96.56
2018-08-11T06:29:00.897Z,93.91
2018-08-11T06:30:00.779Z,91.95
2018-08-11T06:31:00.808Z,91.19
2018-08-11T06:32:00.813Z,89.12
2018-08-11T06:33:00.788Z,88.26
2018-08-11T06:34:00.859Z,86.15
2018-08-11T06:35:00.838Z,92.33
2018-08-11T06:36:00.800Z,96.66
2018-08-11T06:37:00.852Z,93.73
2018-08-11T06:38:00.813Z,99.59
2018-08-11T06:39:00.894Z,99.98
2018-08-11T06:40:00.892Z,97.47
2018-08-11T06:41:00.993Z,99.99
2018-08-11T06:42:00.986Z,97.96
2018-08-11T06:43:00.885Z,98.15
2018-08-11T06:44:00.840Z,98.87
2018-08-11T06:45:00.874Z,97.38
2018-08-11T06:46:00.866Z,97.28
2018-08-11T06:47:00.876Z,93.24
2018-08-11T06:48:00.870Z,94.45
2018-08-11T06:49:00.834Z,93.10
2018-08-11T06:50:00.873Z,93.10
2018-08-11T06:51:00.886Z,94.68
2018-08-11T06:52:00.850Z,96.56
2018-08-11T06:53:00.847Z,96.08
2018-08-11T06:54:00.842Z,98.34
2018-08-11T06:55:00.884Z,99.99
2018-08-11T06:56:00.838Z,99.69
2018-08-11T06:57:00.886Z,97.86
2018-08-11T06:58:00.891Z,96.70
2018-08-11T06:59:00.920Z,93.51
2018-08-11T07:00:00.956Z,89.53
2018-08-11T07:01:00.933Z,88.37
2018-08-11T07:02:00.973Z,87.36
2018-08-11T07:03:00.891Z,87.99
2018-08-11T07:04:00.966Z,91.67
2018-08-11T07:05:01.632Z,90.61
2018-08-11T07:06:00.931Z,89.83
2018-08-11T07:07:00.920Z,93.90
2018-08-11T07:08:00.955Z,93.99
2018-08-11T07:09:00.938Z,90.17
2018-08-11T07:10:00.919Z,90.41
2018-08-11T07:11:00.943Z,90.03
2018-08-11T07:12:00.934Z,93.71
2018-08-11T07:13:00.953Z,95.88
2018-08-11T07:14:00.998Z,96.80
2018-08-11T07:15:00.972Z,98.15
2018-08-11T07:16:00.974Z,97.72
2018-08-11T07:17:00.957Z,96.42
2018-08-11T07:18:01.023Z,98.00
2018-08-11T07:19:00.978Z,98.00
2018-08-11T07:20:01.064Z,98.73
2018-08-11T07:21:01.019Z,96.22
2018-08-11T07:22:01.071Z,90.22
2018-08-11T07:23:01.096Z,93.47
2018-08-11T07:24:01.170Z,96.03
2018-08-11T07:25:01.080Z,90.60
2018-08-11T07:26:01.222Z,89.49
2018-08-11T07:27:01.037Z,88.87
2018-08-11T07:28:01.042Z,85.82
2018-08-11T07:29:01.060Z,86.05
2018-08-11T07:30:01.057Z,83.77
2018-08-11T07:31:01.049Z,82.80
2018-08-11T07:32:01.057Z,83.91
2018-08-11T07:33:01.641Z,81.29
2018-08-11T07:34:01.081Z,80.71
2018-08-11T07:35:01.106Z,79.55
2018-08-11T07:36:01.251Z,78.58
2018-08-11T07:37:01.097Z,78.03
2018-08-11T07:38:01.160Z,76.27
2018-08-11T07:39:01.088Z,76.06
2018-08-11T07:40:01.178Z,78.71
2018-08-11T07:41:01.143Z,78.13
2018-08-11T07:42:01.139Z,77.29
2018-08-11T07:43:01.132Z,74.39
2018-08-11T07:44:01.186Z,75.89
2018-08-11T07:45:01.138Z,77.16
2018-08-11T07:46:01.251Z,75.09
2018-08-11T07:47:01.222Z,75.05
2018-08-11T07:48:01.215Z,75.96
2018-08-11T07:49:01.205Z,73.90
2018-08-11T07:50:01.176Z,73.58
2018-08-11T07:51:01.215Z,71.48
2018-08-11T07:52:01.210Z,74.00
2018-08-11T07:53:01.242Z,73.16
2018-08-11T07:54:01.276Z,71.78
2018-08-11T07:55:01.257Z,70.61
2018-08-11T07:56:01.377Z,71.46
2018-08-11T07:57:01.423Z,68.54
2018-08-11T07:58:01.297Z,67.08
2018-08-11T07:59:01.303Z,65.63
2018-08-11T08:00:01.347Z,66.05
2018-08-11T08:01:01.289Z,65.23
2018-08-11T08:02:01.354Z,68.12
2018-08-11T08:03:01.325Z,68.63
2018-08-11T08:04:01.354Z,69.70
2018-08-11T08:05:01.366Z,68.70
2018-08-11T08:06:01.400Z,66.31
2018-08-11T08:07:01.360Z,66.66
2018-08-11T08:08:01.410Z,66.83
2018-08-11T08:09:01.483Z,66.14
2018-08-11T08:10:01.435Z,68.21
2018-08-11T08:11:01.582Z,69.22
2018-08-11T08:12:01.465Z,67.18
2018-08-11T08:13:01.466Z,70.21
2018-08-11T08:14:01.458Z,71.64
2018-08-11T08:15:01.517Z,71.34
2018-08-11T08:16:01.499Z,70.54
2018-08-11T08:17:01.621Z,71.61
2018-08-11T08:18:01.533Z,72.67
2018-08-11T08:19:01.493Z,75.81
2018-08-11T08:20:01.578Z,73.99
2018-08-11T08:21:01.649Z,76.78
2018-08-11T08:22:01.530Z,78.09
2018-08-11T08:23:01.552Z,79.17
2018-08-11T08:24:01.597Z,80.99
2018-08-11T08:25:01.602Z,77.75
2018-08-11T08:26:01.678Z,75.37
2018-08-11T08:27:01.655Z,77.71
2018-08-11T08:28:01.669Z,79.66
2018-08-11T08:29:01.621Z,82.50
2018-08-11T08:30:01.620Z,78.73
2018-08-11T08:31:01.678Z,80.97
2018-08-11T08:32:01.683Z,82.86
2018-08-11T08:33:01.701Z,80.99
2018-08-11T08:34:01.726Z,76.28
2018-08-11T08:35:01.699Z,73.02
2018-08-11T08:36:01.710Z,76.68
2018-08-11T08:37:01.706Z,75.46
2018-08-11T08:38:01.749Z,72.77
2018-08-11T08:39:01.749Z,70.44
2018-08-11T08:40:01.720Z,71.47
2018-08-11T08:41:01.763Z,71.37
2018-08-11T08:42:01.782Z,70.05
2018-08-11T08:43:01.785Z,70.08
2018-08-11T08:44:01.806Z,72.24
2018-08-11T08:45:01.767Z,73.26
2018-08-11T08:46:01.810Z,72.72
2018-08-11T08:47:01.820Z,71.34
2018-08-11T08:48:01.811Z,71.20
2018-08-11T08:49:01.884Z,71.33
2018-08-11T08:50:01.801Z,72.74
2018-08-11T08:51:01.840Z,74.35
2018-08-11T08:52:01.831Z,77.55
2018-08-11T08:53:01.865Z,78.48
2018-08-11T08:54:01.853Z,81.24
2018-08-11T08:55:01.875Z,82.01
2018-08-11T08:56:01.881Z,78.89
2018-08-11T08:57:01.915Z,72.08
2018-08-11T08:58:01.935Z,68.30
2018-08-11T08:59:01.928Z,63.62
2018-08-11T09:00:01.932Z,62.52
2018-08-11T09:01:01.968Z,59.83
2018-08-11T09:02:01.988Z,59.99
2018-08-11T09:03:01.931Z,58.72
2018-08-11T09:04:01.954Z,58.69
2018-08-11T09:05:01.955Z,59.00
2018-08-11T09:06:02.020Z,62.29
2018-08-11T09:07:02.014Z,61.32
2018-08-11T09:08:02.039Z,60.67
2018-08-11T09:09:02.036Z,60.51
2018-08-11T09:10:02.064Z,60.25
2018-08-11T09:11:02.020Z,60.12
2018-08-11T09:12:02.078Z,61.46
2018-08-11T09:13:02.082Z,66.27
2018-08-11T09:14:02.127Z,64.79
2018-08-11T09:15:02.769Z,64.11
2018-08-11T09:16:02.095Z,63.98
2018-08-11T09:17:02.110Z,62.52
2018-08-11T09:18:02.420Z,62.55
2018-08-11T09:19:02.143Z,63.59
2018-08-11T09:20:02.131Z,65.05
2018-08-11T09:21:02.253Z,67.44
2018-08-11T09:22:02.157Z,64.26
2018-08-11T09:23:02.260Z,62.48
2018-08-11T09:24:02.717Z,61.19
2018-08-11T09:25:02.206Z,62.19
2018-08-11T09:26:02.220Z,64.82
2018-08-11T09:27:02.235Z,63.42
2018-08-11T09:28:02.296Z,59.41
2018-08-11T09:29:02.743Z,58.13
2018-08-11T09:30:02.229Z,55.23
2018-08-11T09:31:02.298Z,55.30
2018-08-11T09:32:02.312Z,55.57
2018-08-11T09:33:02.319Z,55.86
2018-08-11T09:34:02.340Z,55.66
2018-08-11T09:35:02.343Z,55.96
2018-08-11T09:36:02.393Z,55.11
2018-08-11T09:37:02.366Z,56.62
2018-08-11T09:38:02.413Z,58.67
2018-08-11T09:39:02.359Z,58.83
2018-08-11T09:40:02.408Z,58.11
2018-08-11T09:41:02.413Z,57.03
2018-08-11T09:42:02.416Z,53.85
2018-08-11T09:43:02.419Z,52.34
2018-08-11T09:44:02.508Z,51.99
2018-08-11T09:45:02.586Z,55.27
2018-08-11T09:46:02.914Z,55.01
2018-08-11T09:47:02.477Z,53.21
2018-08-11T09:48:02.643Z,51.87
2018-08-11T09:49:02.747Z,52.31
2018-08-11T09:50:02.517Z,52.26
2018-08-11T09:51:02.569Z,52.26
2018-08-11T09:52:02.571Z,52.09
2018-08-11T09:53:02.591Z,50.80
2018-08-11T09:54:02.645Z,50.68
2018-08-11T09:55:02.605Z,51.41
2018-08-11T09:56:02.616Z,52.82
2018-08-11T09:57:02.666Z,53.85
2018-08-11T09:58:02.650Z,55.19
2018-08-11T09:59:02.679Z,56.85
2018-08-11T10:00:02.744Z,55.21
2018-08-11T10:01:02.749Z,53.50
2018-08-11T10:02:02.768Z,53.06
2018-08-11T10:03:02.746Z,55.25
2018-08-11T10:04:02.797Z,56.39
2018-08-11T10:05:02.803Z,55.35
2018-08-11T10:06:02.810Z,56.05
2018-08-11T10:07:02.871Z,54.85
2018-08-11T10:08:02.857Z,52.73
2018-08-11T10:09:02.874Z,51.36
2018-08-11T10:10:02.882Z,50.90
2018-08-11T10:11:02.896Z,50.31
2018-08-11T10:12:02.918Z,51.09
2018-08-11T10:13:02.935Z,51.75
2018-08-11T10:14:02.922Z,53.33
2018-08-11T10:15:02.958Z,53.67
2018-08-11T10:16:02.975Z,53.01
2018-08-11T10:17:02.961Z,52.65
2018-08-11T10:18:02.963Z,52.04
2018-08-11T10:19:03.025Z,54.22
2018-08-11T10:20:03.036Z,56.37
2018-08-11T10:21:03.051Z,59.56
2018-08-11T10:22:03.028Z,62.95
2018-08-11T10:23:03.056Z,64.40
2018-08-11T10:24:03.079Z,66.24
2018-08-11T10:25:03.133Z,62.30
2018-08-11T10:26:03.115Z,59.70
2018-08-11T10:27:03.132Z,58.08
2018-08-11T10:28:03.120Z,57.75
2018-08-11T10:29:03.148Z,55.83
2018-08-11T10:30:03.159Z,54.82
2018-08-11T10:31:03.177Z,53.31
2018-08-11T10:32:03.201Z,51.99
2018-08-11T10:33:03.190Z,56.52
2018-08-11T10:34:03.340Z,55.71
2018-08-11T10:35:03.306Z,55.49
2018-08-11T10:36:03.277Z,57.19
2018-08-11T10:37:03.331Z,60.33
2018-08-11T10:38:03.280Z,59.42
2018-08-11T10:39:03.275Z,57.04
2018-08-11T10:40:03.324Z,54.68
2018-08-11T10:41:03.337Z,55.33
2018-08-11T10:42:03.337Z,55.82
2018-08-11T10:43:03.358Z,56.74
2018-08-11T10:44:03.367Z,59.56
2018-08-11T10:45:03.402Z,60.66
2018-08-11T10:46:03.372Z,62.47
2018-08-11T10:47:03.402Z,63.53
2018-08-11T10:48:03.428Z,63.63
2018-08-11T10:49:03.479Z,62.69
2018-08-11T10:50:03.431Z,62.24
2018-08-11T10:51:03.439Z,59.78
2018-08-11T10:52:03.472Z,58.91
2018-08-11T10:53:03.510Z,59.49
2018-08-11T10:54:03.489Z,59.66
2018-08-11T10:55:03.519Z,60.17
2018-08-11T10:56:03.645Z,61.79
2018-08-11T10:57:03.564Z,63.76
2018-08-11T10:58:03.570Z,64.53
2018-08-11T10:59:03.566Z,64.82
2018-08-11T11:00:03.561Z,64.34
2018-08-11T11:01:03.567Z,63.95
2018-08-11T11:02:03.594Z,65.59
2018-08-11T11:03:03.597Z,64.82
2018-08-11T11:04:03.677Z,64.69
2018-08-11T11:05:03.635Z,64.31
2018-08-11T11:06:03.609Z,65.37
2018-08-11T11:07:03.633Z,64.95
2018-08-11T11:08:03.635Z,65.08
2018-08-11T11:09:03.754Z,65.08
2018-08-11T11:10:03.641Z,64.24
2018-08-11T11:11:03.734Z,64.53
2018-08-11T11:12:03.690Z,63.82
2018-08-11T11:13:03.707Z,63.95
2018-08-11T11:14:03.693Z,62.92
2018-08-11T11:15:03.672Z,62.05
2018-08-11T11:16:03.718Z,61.76
2018-08-11T11:17:03.703Z,62.18
2018-08-11T11:18:03.695Z,61.24
2018-08-11T11:19:03.706Z,61.43
2018-08-11T11:20:03.728Z,59.98
2018-08-11T11:21:03.774Z,61.11
2018-08-11T11:22:03.785Z,61.11
2018-08-11T11:23:03.735Z,60.92
2018-08-11T11:24:03.774Z,61.43
2018-08-11T11:25:03.837Z,61.72
2018-08-11T11:26:03.785Z,62.21
2018-08-11T11:27:03.842Z,63.14
2018-08-11T11:28:03.808Z,62.95
2018-08-11T11:29:03.765Z,63.34
2018-08-11T11:30:03.795Z,63.34
2018-08-11T11:31:03.794Z,63.53
2018-08-11T11:32:03.819Z,62.85
2018-08-11T11:33:03.805Z,63.34
2018-08-11T11:34:03.839Z,63.31
2018-08-11T11:35:03.940Z,62.82
2018-08-11T11:36:03.917Z,63.28
2018-08-11T11:37:03.952Z,64.31
2018-08-11T11:38:03.888Z,65.08
2018-08-11T11:39:03.854Z,63.85
2018-08-11T11:40:03.874Z,63.79
2018-08-11T11:41:03.871Z,62.18
2018-08-11T11:42:03.903Z,62.21
2018-08-11T11:43:03.984Z,61.66
2018-08-11T11:44:03.897Z,61.82
2018-08-11T11:45:04.208Z,61.43
2018-08-11T11:46:03.914Z,62.76
2018-08-11T11:47:04.053Z,63.11
2018-08-11T11:48:03.939Z,64.63
2018-08-11T11:49:04.040Z,65.14
2018-08-11T11:50:03.977Z,64.76
2018-08-11T11:51:03.930Z,63.79
2018-08-11T11:52:04.022Z,64.56
2018-08-11T11:53:03.964Z,64.01
2018-08-11T11:54:03.951Z,63.11
2018-08-11T11:55:03.968Z,61.40
2018-08-11T11:56:03.977Z,60.82
2018-08-11T11:57:03.976Z,61.04
2018-08-11T11:58:04.007Z,61.36
2018-08-11T11:59:03.983Z,61.62
2018-08-11T12:00:04.231Z,59.33
2018-08-11T12:01:03.996Z,58.77
2018-08-11T12:02:04.055Z,58.09
2018-08-11T12:03:04.006Z,59.03
2018-08-11T12:04:04.020Z,58.81
2018-08-11T12:05:04.070Z,58.59
2018-08-11T12:06:04.057Z,58.98
2018-08-11T12:07:04.040Z,58.78
2018-08-11T12:08:04.027Z,58.37
2018-08-11T12:09:04.176Z,58.98
2018-08-11T12:10:04.820Z,58.59
2018-08-11T12:11:04.107Z,58.39
2018-08-11T12:12:04.111Z,58.69
2018-08-11T12:13:04.114Z,58.88
2018-08-11T12:14:04.119Z,58.52
2018-08-11T12:15:04.121Z,58.39
2018-08-11T12:16:04.123Z,58.85
2018-08-11T12:17:04.150Z,59.33
2018-08-11T12:18:04.141Z,59.07
2018-08-11T12:19:04.171Z,59.33
2018-08-11T12:20:04.142Z,59.33
2018-08-11T12:21:04.175Z,58.27
2018-08-11T12:22:04.165Z,57.20
2018-08-11T12:23:04.173Z,57.62
2018-08-11T12:24:04.166Z,57.53
2018-08-11T12:25:04.208Z,57.65
2018-08-11T12:26:04.188Z,57.94
2018-08-11T12:27:04.150Z,57.48
2018-08-11T12:28:04.266Z,57.45
2018-08-11T12:29:04.169Z,57.75
2018-08-11T12:30:04.268Z,58.52
2018-08-11T12:31:04.227Z,58.42
2018-08-11T12:32:04.232Z,58.39
2018-08-11T12:33:04.210Z,58.59
2018-08-11T12:34:04.243Z,59.56
2018-08-11T12:35:04.280Z,60.01
2018-08-11T12:36:04.238Z,60.01
2018-08-11T12:37:04.256Z,61.46
2018-08-11T12:38:04.433Z,61.30
2018-08-11T12:39:04.259Z,61.11
2018-08-11T12:40:04.344Z,59.97
2018-08-11T12:41:04.294Z,59.17
2018-08-11T12:42:04.293Z,60.01
2018-08-11T12:43:04.269Z,59.66
2018-08-11T12:44:04.302Z,61.01
2018-08-11T12:45:04.311Z,60.27
2018-08-11T12:46:04.334Z,60.75
2018-08-11T12:47:04.341Z,61.63
2018-08-11T12:48:04.294Z,61.46
2018-08-11T12:49:04.338Z,60.91
2018-08-11T12:50:04.595Z,59.66
2018-08-11T12:51:04.385Z,59.30
2018-08-11T12:52:04.361Z,58.20
2018-08-11T12:53:04.378Z,58.23
2018-08-11T12:54:04.372Z,57.58
2018-08-11T12:55:04.451Z,58.74
2018-08-11T12:56:04.394Z,58.42
2018-08-11T12:57:04.392Z,58.42
2018-08-11T12:58:04.380Z,58.91
2018-08-11T12:59:04.458Z,58.26
2018-08-11T13:00:04.421Z,58.52
2018-08-11T13:01:04.376Z,57.75
2018-08-11T13:02:04.411Z,57.65
2018-08-11T13:03:04.391Z,57.55
2018-08-11T13:04:04.507Z,57.91
2018-08-11T13:05:04.448Z,58.30
2018-08-11T13:06:04.415Z,58.88
2018-08-11T13:07:04.504Z,58.01
2018-08-11T13:08:04.452Z,58.01
2018-08-11T13:09:04.440Z,57.53
2018-08-11T13:10:04.471Z,57.81
2018-08-11T13:11:04.470Z,57.91
2018-08-11T13:12:04.513Z,58.11
2018-08-11T13:13:04.459Z,57.62